Latest Weather Observations for Wynyard

IDT60801

Issued at 12:01 am EST Sunday 6 September 2026 (issued every 10 minutes, with the page automatically refreshed every 10 minutes)

About weather observations | Map of weather stations | Latest weather observations for TAS | Other Formats
Station Details ID: 091107 Name: WYNYARD AIRPORT Lat: -41.00 Lon: 145.73 Height: 12.0 m
Data from the previous 72 hours. | See also: Recent months at Wynyard
Date/Time
EST
Temp
°C
App
Temp
°C
Dew
Point
°C
Rel
Hum
%
Delta-T
°C
Wind Press
QNH
hPa
Press
MSL
hPa
Rain since
9am
mm
Dir  Spd
km/h
Gust
km/h
Spd
kts
Gust
kts
06/12:00am 6.7 4.1 6.3 97 0.2 WSW 9 13 5 7 1003.8 1003.8 3.4
 
Date/Time
EST
Temp
°C
App
Temp
°C
Dew
Point
°C
Rel
Hum
%
Delta-T
°C
Wind Press
QNH
hPa
Press
MSL
hPa
Rain since
9am
mm
Dir  Spd
km/h
Gust
km/h
Spd
kts
Gust
kts
05/11:30pm 6.7 4.7 6.3 97 0.2 SSW 6 13 3 7 1002.7 1002.7 3.4
05/11:00pm 7.6 5.8 7.3 98 0.1 NW 6 9 3 5 1002.1 1002.1 3.4
05/10:53pm 7.6 5.8 7.3 98 0.1 WNW 6 7 3 4 1002.1 1002.1 3.4
05/10:30pm 7.5 5.7 7.2 98 0.1 WNW 6 9 3 5 1001.5 1001.5 3.4
05/10:27pm 7.3 5.5 7.0 98 0.1 NW 6 9 3 5 1001.4 1001.4 3.4
05/10:06pm 7.3 6.6 6.9 97 0.2 CALM 0 0 0 0 1001.2 1001.2 3.4
05/10:00pm 7.7 7.1 7.4 98 0.1 CALM 0 0 0 0 1001.0 1001.0 3.4
05/09:30pm 7.7 5.9 7.1 96 0.3 SW 6 7 3 4 1000.6 1000.6 3.4
05/09:25pm 7.9 6.9 7.3 96 0.3 S 2 7 1 4 1000.3 1000.3 3.4
05/09:12pm 8.4 7.9 7.8 96 0.3 CALM 0 0 0 0 999.9 999.9 3.4
05/09:07pm 8.7 8.3 8.1 96 0.3 CALM 0 0 0 0 999.8 999.8 3.4
05/09:00pm 8.9 8.5 8.3 96 0.3 CALM 0 0 0 0 999.6 999.6 3.4
05/08:30pm 10.0 8.6 9.4 96 0.3 WNW 7 7 4 4 999.3 999.3 3.4
05/08:00pm 9.6 8.3 9.1 97 0.2 NW 6 7 3 4 998.7 998.7 3.4
05/07:30pm 9.3 7.8 8.4 94 0.4 W 6 7 3 4 998.1 998.1 3.4
05/07:00pm 9.8 7.9 9.2 96 0.3 W 9 11 5 6 997.7 997.7 3.4
05/06:30pm 10.0 8.1 9.1 94 0.4 WSW 9 11 5 6 997.1 997.1 3.4
05/06:16pm 10.7 9.0 9.9 95 0.4 WSW 9 13 5 7 997.0 997.0 3.4
05/06:09pm 10.8 8.8 10.0 95 0.4 W 11 15 6 8 996.9 996.9 3.4
05/06:00pm 10.8 8.4 10.0 95 0.4 WNW 13 19 7 10 996.8 996.8 3.4
05/05:41pm 10.9 8.1 10.0 94 0.5 WNW 15 19 8 10 996.8 996.8 3.0
05/05:30pm 11.0 7.5 10.1 94 0.5 WNW 19 24 10 13 996.7 996.7 2.8
05/05:26pm 10.9 7.1 9.8 93 0.6 WNW 20 26 11 14 996.7 996.7 2.4
05/05:20pm 11.1 6.9 9.9 92 0.6 WNW 22 30 12 16 996.7 996.7 2.0
05/05:16pm 11.2 6.6 9.8 91 0.7 WNW 24 33 13 18 996.7 996.7 1.4
05/05:00pm 11.3 6.7 9.6 89 0.9 WNW 24 37 13 20 996.5 996.5 1.2
05/04:30pm 11.6 6.1 9.2 85 1.2 WNW 28 39 15 21 996.2 996.2 0.8
05/04:04pm 12.0 6.2 9.6 85 1.2 WNW 30 39 16 21 996.1 996.1 0.8
05/04:00pm 12.2 6.0 9.4 83 1.4 WNW 32 39 17 21 996.1 996.1 0.8
05/03:53pm 12.3 6.6 9.7 84 1.3 WNW 30 48 16 26 996.0 996.0 0.8
05/03:50pm 12.3 6.5 9.5 83 1.4 WNW 30 48 16 26 996.0 996.0 0.8
05/03:38pm 12.4 6.8 10.1 86 1.2 WNW 30 44 16 24 996.1 996.1 0.8
05/03:35pm 12.4 6.4 10.1 86 1.2 WNW 32 46 17 25 996.1 996.1 0.8
05/03:30pm 13.1 6.4 9.7 80 1.7 WNW 35 46 19 25 996.1 996.1 0.6
05/03:25pm 13.4 5.9 9.5 77 2.0 WNW 39 57 21 31 995.9 995.9 0.6
05/03:22pm 13.4 5.4 9.1 75 2.2 WNW 41 57 22 31 995.9 995.9 0.6
05/03:00pm 14.1 6.4 10.3 78 2.0 WNW 41 61 22 33 995.7 995.7 0.6
05/02:46pm 14.2 6.5 8.6 69 2.8 NW 39 57 21 31 995.4 995.4 0.6
05/02:30pm 14.1 7.9 10.1 77 2.1 NW 33 48 18 26 995.4 995.4 0.6
05/02:21pm 14.0 7.1 10.4 79 1.9 NW 37 50 20 27 995.3 995.3 0.6
05/02:10pm 13.8 7.8 12.2 90 0.9 NW 35 46 19 25 995.5 995.5 0.6
05/02:00pm 14.6 8.5 9.8 73 2.5 NW 32 48 17 26 995.6 995.6 0.6
05/01:58pm 15.1 9.3 10.7 75 2.3 NW 32 43 17 23 995.6 995.6 0.6
05/01:43pm 14.1 8.0 9.9 76 2.2 NW 32 52 17 28 995.6 995.6 0.6
05/01:30pm 14.7 7.2 9.5 71 2.7 NW 39 52 21 28 995.9 995.9 0.6
05/01:15pm 14.7 8.0 9.7 72 2.6 WNW 35 52 19 28 996.2 996.2 0.6
05/01:00pm 15.1 8.1 9.9 71 2.7 WNW 37 56 20 30 996.4 996.4 0.6
05/12:56pm 15.0 7.9 9.4 69 2.9 WNW 37 56 20 30 996.3 996.3 0.6
05/12:43pm 14.7 7.9 9.1 69 2.9 WNW 35 50 19 27 996.2 996.2 0.6
05/12:30pm 14.8 7.9 9.0 68 3.0 NW 35 54 19 29 996.4 996.4 0.6
05/12:23pm 14.9 8.2 11.1 78 2.0 NW 37 57 20 31 996.5 996.5 0.6
05/12:18pm 15.0 9.0 12.0 82 1.6 NW 35 57 19 31 996.5 996.5 0.6
05/12:09pm 15.6 10.4 12.7 83 1.6 NW 32 48 17 26 996.5 996.5 0.6
05/12:00pm 15.6 10.2 12.7 83 1.6 NNW 33 50 18 27 996.6 996.6 0.6
05/11:50am 15.7 10.4 13.2 85 1.4 NNW 33 56 18 30 996.8 996.8 0.6
05/11:37am 15.1 9.8 12.6 85 1.4 NNW 32 50 17 27 996.9 996.9 0.6
05/11:30am 14.8 10.0 13.0 89 1.0 NNW 30 41 16 22 997.1 997.1 0.6
05/11:00am 14.3 9.1 12.7 90 0.9 NNW 32 44 17 24 997.7 997.7 0.6
05/10:30am 13.7 9.1 12.3 91 0.8 NNW 28 43 15 23 998.2 998.2 0.4
05/10:29am 13.8 9.6 12.4 91 0.8 NNW 26 43 14 23 998.2 998.2 0.4
05/10:00am 13.3 10.3 12.4 94 0.5 NNW 20 39 11 21 998.9 998.9 0.4
05/09:30am 13.2 10.3 12.4 95 0.4 NNW 19 26 10 14 999.2 999.2 0.4
05/09:09am 13.2 10.4 12.6 96 0.3 NNW 19 28 10 15 999.5 999.5 0.4
05/09:00am 13.1 10.3 12.5 96 0.3 NNW 19 28 10 15 999.7 999.7 18.8
05/08:36am 13.1 12.5 12.3 95 0.4 N 7 13 4 7 1000.4 1000.4 16.8
05/08:30am 13.0 13.3 12.1 94 0.5 NNE 2 7 1 4 1000.5 1000.5 16.4
05/08:00am 12.9 13.6 12.1 95 0.4 CALM 0 6 0 3 1000.9 1000.9 16.4
05/07:30am 12.8 13.1 12.2 96 0.3 WNW 2 7 1 4 1001.1 1001.1 16.4
05/07:00am 12.8 12.1 12.0 95 0.4 NNW 7 11 4 6 1001.5 1001.5 16.4
05/06:30am 12.6 11.9 12.1 97 0.3 N 7 15 4 8 1001.9 1001.9 16.4
05/06:04am 12.2 12.0 11.9 98 0.2 ESE 4 9 2 5 1002.3 1002.3 16.4
05/06:00am 12.1 11.5 11.8 98 0.2 ESE 6 9 3 5 1002.4 1002.4 16.4
05/05:30am 11.9 10.7 11.6 98 0.2 SE 9 13 5 7 1003.0 1003.0 15.6
05/05:00am 11.7 10.4 11.4 98 0.2 ESE 9 13 5 7 1003.4 1003.4 14.6
05/04:30am 11.7 10.8 11.4 98 0.2 SSE 7 9 4 5 1003.9 1003.9 12.0
05/04:00am 11.7 11.3 11.2 97 0.3 SSE 4 9 2 5 1004.2 1004.2 8.4
05/03:30am 12.0 12.4 11.4 96 0.3 CALM 0 0 0 0 1004.8 1004.8 5.0
05/03:00am 12.0 9.5 11.1 94 0.5 NW 15 24 8 13 1005.4 1005.4 4.2
05/02:30am 12.3 9.6 11.7 96 0.3 NW 17 26 9 14 1006.4 1006.5 2.8
05/02:00am 11.9 9.9 11.4 97 0.3 NW 13 20 7 11 1006.9 1007.0 2.0
05/01:35am 10.9 10.3 10.4 97 0.3 SSE 4 7 2 4 1007.3 1007.4 1.6
05/01:30am 10.8 9.8 10.3 97 0.3 SSE 6 9 3 5 1007.3 1007.4 1.2
05/01:28am 10.8 9.8 10.3 97 0.3 SSE 6 9 3 5 1007.4 1007.5 1.2
05/01:10am 10.5 9.4 10.0 97 0.3 E 6 7 3 4 1007.5 1007.6 1.0
05/01:07am 10.5 9.4 10.0 97 0.3 E 6 6 3 3 1007.5 1007.6 0.8
05/01:00am 10.4 9.3 9.9 97 0.3 ENE 6 7 3 4 1007.7 1007.8 0.8
05/12:50am 10.4 10.4 9.8 96 0.3 CALM 0 0 0 0 1007.8 1007.9 0.8
05/12:43am 10.4 10.4 9.9 97 0.3 CALM 0 0 0 0 1007.9 1008.0 0.8
05/12:30am 10.4 10.4 9.9 97 0.3 CALM 0 2 0 1 1008.1 1008.2 0.8
05/12:00am 10.3 9.2 9.8 97 0.3 SE 6 7 3 4 1008.7 1008.8 0.8
 
Date/Time
EST
Temp
°C
App
Temp
°C
Dew
Point
°C
Rel
Hum
%
Delta-T
°C
Wind Press
QNH
hPa
Press
MSL
hPa
Rain since
9am
mm
Dir  Spd
km/h
Gust
km/h
Spd
kts
Gust
kts
04/11:30pm 10.2 10.1 9.6 96 0.3 CALM 0 6 0 3 1009.1 1009.2 0.8
04/11:16pm 10.2 9.0 9.6 96 0.3 SE 6 7 3 4 1009.2 1009.3 0.8
04/11:00pm 10.2 9.7 9.4 95 0.4 WSW 2 7 1 4 1009.4 1009.5 0.8
04/10:53pm 10.2 10.1 9.4 95 0.4 CALM 0 0 0 0 1009.6 1009.7 0.4
04/10:30pm 10.2 10.1 9.3 94 0.4 CALM 0 6 0 3 1009.9 1010.0 0.4
04/10:00pm 10.3 10.1 9.1 92 0.6 CALM 0 0 0 0 1010.3 1010.4 0.4
04/09:55pm 10.3 9.7 9.1 92 0.6 WSW 2 7 1 4 1010.4 1010.5 0.4
04/09:38pm 10.3 10.1 8.9 91 0.7 CALM 0 0 0 0 1010.5 1010.6 0.4
04/09:30pm 10.3 10.0 8.7 90 0.8 CALM 0 0 0 0 1010.6 1010.7 0.4
04/09:00pm 10.3 8.9 8.7 90 0.8 W 6 7 3 4 1010.8 1010.9 0.4
04/08:30pm 10.2 8.6 8.8 91 0.7 W 7 11 4 6 1010.9 1011.0 0.4
04/08:00pm 10.3 7.9 8.7 90 0.8 WNW 11 17 6 9 1011.0 1011.1 0.4
04/07:30pm 10.7 7.2 8.6 87 1.0 WNW 17 22 9 12 1011.5 1011.6 0.2
04/07:00pm 10.8 7.3 8.7 87 1.0 W 17 24 9 13 1011.5 1011.6 0.2
04/06:30pm 11.0 7.1 8.6 85 1.2 WNW 19 24 10 13 1011.6 1011.7 0.2
04/06:00pm 11.6 8.8 8.6 82 1.5 WNW 13 17 7 9 1011.5 1011.6 0.2
04/05:30pm 11.7 7.6 8.0 78 1.8 WNW 19 24 10 13 1011.3 1011.4 0.2
04/05:00pm 11.7 8.2 8.7 82 1.5 NW 17 28 9 15 1011.3 1011.4 0.2
04/04:30pm 11.5 7.9 8.4 81 1.5 WNW 17 22 9 12 1011.3 1011.4 0.2
04/04:00pm 11.1 5.9 8.7 85 1.2 WNW 26 35 14 19 1011.7 1011.8 0.2
04/03:30pm 13.0 7.5 6.1 63 3.3 WNW 24 35 13 19 1011.4 1011.5 0.0
04/03:00pm 13.2 6.8 5.4 59 3.6 W 28 35 15 19 1011.4 1011.5 0.0
04/02:30pm 13.1 6.3 5.3 59 3.6 WNW 30 41 16 22 1011.7 1011.8 0.0
04/02:00pm 14.8 8.6 6.1 56 4.2 WNW 28 37 15 20 1011.7 1011.8 0.0
04/01:30pm 14.3 7.5 3.2 47 5.0 WNW 28 35 15 19 1012.0 1012.1 0.0
04/01:00pm 14.1 7.5 4.1 51 4.6 W 28 37 15 20 1012.4 1012.5 0.0
04/12:30pm 14.7 7.4 4.7 51 4.7 WNW 32 43 17 23 1012.7 1012.8 0.0
04/12:11pm 13.9 6.9 3.9 51 4.5 W 30 43 16 23 1013.0 1013.1 0.0
04/12:00pm 14.1 6.8 4.7 53 4.4 W 32 52 17 28 1013.1 1013.2 0.0
04/11:52am 14.6 7.4 5.1 53 4.5 W 32 52 17 28 1013.3 1013.4 0.0
04/11:30am 14.4 9.0 6.3 58 3.9 WNW 24 35 13 19 1013.7 1013.8 0.0
04/11:00am 13.8 7.4 5.4 57 3.9 WNW 28 39 15 21 1013.8 1013.9 0.0
04/10:30am 13.5 8.2 6.6 63 3.3 WNW 24 39 13 21 1014.1 1014.2 0.0
04/10:00am 12.2 6.8 6.3 67 2.8 WNW 24 33 13 18 1014.5 1014.6 0.0
04/09:30am 12.4 7.1 6.9 69 2.6 WNW 24 30 13 16 1014.5 1014.6 0.0
04/09:00am 11.0 9.0 6.9 76 1.9 WSW 7 13 4 7 1014.5 1014.6 2.2
04/08:30am 10.3 7.5 7.0 80 1.6 WSW 11 15 6 8 1014.4 1014.5 2.2
04/08:00am 9.4 6.4 7.7 89 0.8 W 13 17 7 9 1014.6 1014.7 2.2
04/07:30am 8.1 4.9 6.9 92 0.6 WSW 13 19 7 10 1014.2 1014.3 2.2
04/07:00am 7.5 4.9 6.1 91 0.6 WNW 9 13 5 7 1013.9 1014.0 2.2
04/06:30am 5.4 2.5 4.8 96 0.3 W 9 9 5 5 1013.6 1013.7 2.2
04/06:00am 5.4 2.5 4.8 96 0.3 WSW 9 9 5 5 1013.4 1013.5 2.2
04/05:30am 6.3 3.5 5.3 93 0.4 W 9 13 5 7 1013.4 1013.5 2.2
04/05:00am 6.2 3.0 5.2 93 0.4 W 11 13 6 7 1013.4 1013.5 2.2
04/04:30am 5.7 3.3 4.5 92 0.5 W 6 7 3 4 1013.1 1013.2 2.2
04/04:00am 5.9 4.0 4.9 93 0.4 WSW 4 6 2 3 1012.9 1013.0 2.2
04/03:30am 6.0 2.7 4.6 91 0.6 SW 11 15 6 8 1012.9 1013.0 2.2
04/03:00am 6.2 2.9 4.5 89 0.7 WSW 11 15 6 8 1013.2 1013.3 2.2
04/02:30am 6.3 3.8 4.6 89 0.7 W 7 9 4 5 1013.7 1013.8 2.0
04/02:00am 6.3 3.7 4.1 86 0.9 NW 7 11 4 6 1013.7 1013.8 1.8
04/01:30am 5.8 2.7 3.8 87 0.8 W 9 15 5 8 1013.8 1013.9 1.8
04/01:00am 6.7 3.4 4.4 85 1.0 WSW 11 13 6 7 1013.6 1013.7 1.8
04/12:30am 7.4 3.0 4.7 83 1.2 W 17 22 9 12 1013.3 1013.4 1.8
04/12:00am 8.0 3.7 5.1 82 1.3 W 17 24 9 13 1013.2 1013.3 1.8
 
Date/Time
EST
Temp
°C
App
Temp
°C
Dew
Point
°C
Rel
Hum
%
Delta-T
°C
Wind Press
QNH
hPa
Press
MSL
hPa
Rain since
9am
mm
Dir  Spd
km/h
Gust
km/h
Spd
kts
Gust
kts
03/11:30pm 8.6 3.4 5.5 81 1.4 WSW 22 41 12 22 1013.0 1013.1 1.8
03/11:00pm 7.6 3.4 5.6 87 0.9 W 17 24 9 13 1012.9 1013.0 1.8
03/10:30pm 8.4 3.3 5.9 84 1.1 W 22 28 12 15 1012.6 1012.7 1.8
03/10:00pm 7.7 3.5 5.5 86 1.0 W 17 20 9 11 1012.4 1012.5 1.8
03/09:30pm 8.4 3.6 5.5 82 1.3 W 20 26 11 14 1012.4 1012.5 1.8
03/09:00pm 8.4 3.2 5.3 81 1.4 WNW 22 26 12 14 1012.0 1012.1 1.8
03/08:30pm 9.0 4.2 5.6 79 1.5 WNW 20 26 11 14 1011.7 1011.8 1.8
03/08:00pm 8.5 4.1 4.9 78 1.6 W 17 28 9 15 1011.1 1011.2 1.8
03/07:30pm 8.5 4.2 5.1 79 1.5 W 17 26 9 14 1011.1 1011.2 1.8
03/07:00pm 8.8 4.0 5.7 81 1.4 W 20 30 11 16 1010.4 1010.5 1.8
03/06:30pm 8.5 3.4 5.8 83 1.2 W 22 30 12 16 1009.7 1009.8 1.8
03/06:04pm 9.0 2.9 6.4 84 1.2 WSW 28 54 15 29 1008.8 1008.9 1.8
03/06:00pm 9.0 3.6 6.4 84 1.2 WSW 24 37 13 20 1009.0 1009.1 1.2
03/05:30pm 9.5 3.4 6.4 81 1.4 W 28 37 15 20 1008.0 1008.1 1.2
03/05:08pm 10.4 4.3 6.4 76 1.9 W 28 35 15 19 1007.5 1007.6 1.0
03/05:00pm 10.7 4.9 6.1 73 2.1 W 26 35 14 19 1007.1 1007.2 1.0
03/04:57pm 10.8 4.6 6.2 73 2.1 W 28 46 15 25 1007.0 1007.1 1.0
03/04:49pm 10.9 4.3 5.9 71 2.3 W 30 46 16 25 1006.9 1007.0 1.0
03/04:30pm 10.6 3.7 6.6 76 1.9 W 32 50 17 27 1006.9 1007.0 1.0
03/04:14pm 10.4 1.7 6.0 74 2.0 W 41 59 22 32 1006.5 1006.6 1.0
03/04:00pm 11.1 3.2 6.3 72 2.3 W 37 63 20 34 1005.9 1005.9 1.0
03/03:40pm 10.8 1.5 6.0 72 2.2 W 44 67 24 36 1005.7 1005.7 1.0
03/03:30pm 9.8 -1.0 6.2 78 1.7 W 52 80 28 43 1005.7 1005.7 1.0
03/03:28pm 9.6 -1.3 5.6 76 1.8 W 52 83 28 45 1005.7 1005.7 1.0
03/03:20pm 11.9 2.3 4.4 60 3.4 W 44 83 24 45 1005.5 1005.5 0.4
03/03:07pm 13.1 3.4 3.7 53 4.2 W 44 63 24 34 1004.9 1004.9 0.4
03/03:01pm 13.4 3.9 5.1 57 3.9 W 44 59 24 32 1005.0 1005.0 0.4
03/03:00pm 13.5 4.1 5.4 58 3.8 W 44 59 24 32 1005.0 1005.0 0.4
03/02:30pm 12.1 3.6 6.8 70 2.5 W 41 61 22 33 1004.6 1004.6 0.4
03/02:26pm 12.4 4.6 8.1 75 2.1 W 39 57 21 31 1004.7 1004.7 0.4
03/02:25pm 12.1 3.3 7.2 72 2.4 W 43 59 23 32 1004.6 1004.6 0.4
03/02:10pm 10.8 1.6 6.2 73 2.1 W 44 63 24 34 1004.5 1004.5 0.4
03/02:00pm 12.6 2.7 4.8 59 3.6 W 46 61 25 33 1004.2 1004.2 0.4
03/01:57pm 13.2 3.5 5.6 60 3.6 W 46 61 25 33 1004.2 1004.2 0.4
03/01:46pm 12.8 4.3 5.2 60 3.5 W 39 57 21 31 1004.0 1004.0 0.4
03/01:33pm 12.2 3.9 6.3 67 2.8 W 39 52 21 28 1003.9 1003.9 0.4
03/01:30pm 11.9 4.0 6.2 68 2.7 W 37 52 20 28 1004.1 1004.1 0.4
03/01:00pm 13.3 3.5 3.4 51 4.5 WNW 44 67 24 36 1003.6 1003.6 0.2
03/12:30pm 14.1 5.4 6.0 58 3.9 W 41 59 22 32 1003.5 1003.5 0.2
03/12:00pm 12.4 4.3 5.1 61 3.4 W 37 54 20 29 1003.7 1003.7 0.2
03/11:49am 11.4 2.5 5.3 66 2.8 W 41 65 22 35 1003.8 1003.8 0.2
03/11:39am 10.5 1.5 4.6 67 2.6 WSW 41 78 22 42 1004.1 1004.1 0.2
03/11:32am 11.8 3.5 5.9 67 2.8 WSW 39 56 21 30 1003.4 1003.4 0.2
03/11:30am 11.5 3.4 5.2 65 2.9 WSW 37 54 20 29 1003.3 1003.3 0.2
03/11:21am 13.8 6.3 6.2 60 3.6 W 35 50 19 27 1003.0 1003.0 0.0
03/11:00am 12.6 4.1 5.3 61 3.4 W 39 56 21 30 1003.2 1003.2 0.0
03/10:30am 12.7 3.1 3.4 53 4.1 W 43 63 23 34 1002.7 1002.7 0.0
03/10:19am 12.6 4.7 4.3 57 3.8 WSW 35 63 19 34 1002.8 1002.8 0.0
03/10:11am 12.3 5.0 5.5 63 3.2 W 33 50 18 27 1002.6 1002.6 0.0
03/10:01am 12.5 5.4 6.3 66 2.9 W 33 52 18 28 1002.7 1002.7 0.0
03/10:00am 12.2 4.5 5.4 63 3.2 W 35 52 19 28 1002.6 1002.6 0.0
03/09:59am 12.1 4.5 5.9 66 2.9 W 35 52 19 28 1002.6 1002.6 0.0
03/09:30am 12.2 4.4 6.5 68 2.7 W 37 57 20 31 1002.4 1002.4 0.0
03/09:28am 12.0 4.0 5.9 66 2.9 W 37 57 20 31 1002.2 1002.2 0.0
03/09:23am 11.9 4.2 5.5 65 3.0 W 35 50 19 27 1002.1 1002.1 0.0
03/09:02am 10.7 3.5 5.7 71 2.3 WSW 33 54 18 29 1002.0 1002.0 0.0
03/09:00am 10.4 3.5 6.4 76 1.9 WSW 32 43 17 23 1002.2 1002.2 10.0
03/08:30am 10.8 4.0 7.1 78 1.8 W 32 46 17 25 1001.3 1001.3 10.0
03/08:00am 11.0 4.7 7.3 78 1.8 W 30 39 16 21 1000.7 1000.7 10.0
03/07:30am 10.6 4.3 7.3 80 1.6 W 30 41 16 22 1000.0 1000.0 10.0
03/07:19am 10.6 4.3 7.5 81 1.5 W 30 46 16 25 1000.0 1000.0 10.0
03/07:00am 11.0 3.9 8.1 82 1.4 W 35 56 19 30 999.8 999.8 10.0
03/06:55am 11.0 4.1 8.8 86 1.1 W 35 46 19 25 999.7 999.7 10.0
03/06:41am 11.2 4.9 8.9 86 1.1 W 32 50 17 27 999.1 999.1 10.0
03/06:30am 11.1 5.9 9.0 87 1.0 W 26 37 14 20 998.9 998.9 9.8
03/06:27am 11.3 5.8 9.2 87 1.0 W 28 43 15 23 998.9 998.9 9.8
03/06:24am 11.4 5.9 9.3 87 1.1 W 28 43 15 23 999.0 999.0 9.8
03/06:23am 11.4 5.6 9.3 87 1.1 W 30 43 16 23 999.0 999.0 9.8
03/06:06am 12.1 5.8 11.0 93 0.6 W 35 52 19 28 999.3 999.3 9.4
03/06:00am 12.2 5.5 10.9 92 0.7 WNW 37 54 20 29 998.9 998.9 8.2
03/05:52am 12.2 6.9 11.1 93 0.6 WNW 30 48 16 26 998.6 998.6 7.8
03/05:51am 12.1 7.1 11.0 93 0.6 WNW 28 48 15 26 998.8 998.8 7.8
03/05:45am 12.2 6.4 10.9 92 0.7 WNW 32 48 17 26 998.6 998.6 7.4
03/05:32am 12.1 6.3 10.8 92 0.7 WNW 32 52 17 28 998.6 998.6 7.0
03/05:30am 12.1 6.6 10.7 91 0.7 NW 30 52 16 28 998.6 998.6 6.8
03/05:26am 12.1 7.1 10.8 92 0.7 NW 28 52 15 28 998.4 998.4 6.8
03/05:22am 11.9 6.5 11.0 94 0.5 NW 30 46 16 25 998.6 998.6 6.8
03/05:07am 12.1 6.3 10.8 92 0.7 NW 32 41 17 22 999.0 999.0 5.8
03/05:00am 12.2 7.2 10.8 91 0.7 NW 28 39 15 21 999.1 999.1 5.6
03/04:57am 12.1 6.7 10.8 92 0.7 WNW 30 46 16 25 999.1 999.1 5.6
03/04:54am 12.1 6.3 10.7 91 0.7 WNW 32 48 17 26 999.1 999.1 5.6
03/04:43am 12.2 6.1 10.6 90 0.8 WNW 33 52 18 28 999.2 999.2 5.6
03/04:39am 12.1 6.0 10.5 90 0.8 WNW 33 52 18 28 999.3 999.3 5.6
03/04:30am 12.0 6.2 10.7 92 0.7 NW 32 44 17 24 999.2 999.2 5.6
03/04:04am 12.0 5.6 10.6 91 0.7 WNW 35 50 19 27 999.5 999.5 5.0
03/04:00am 12.1 6.2 10.5 90 0.8 WNW 32 44 17 24 999.7 999.7 5.0
03/03:59am 12.1 6.0 10.5 90 0.8 WNW 33 44 18 24 999.7 999.7 5.0
03/03:41am 12.1 5.6 10.5 90 0.8 NW 35 57 19 31 999.8 999.8 4.8
03/03:30am 12.0 6.5 10.6 91 0.7 WNW 30 50 16 27 1000.0 1000.0 4.8
03/03:18am 11.9 6.4 10.6 92 0.7 WNW 30 46 16 25 1000.3 1000.3 4.8
03/03:00am 11.8 7.4 10.5 92 0.7 WNW 24 33 13 18 1000.8 1000.8 4.8
03/02:53am 11.8 7.4 10.5 92 0.7 WNW 24 30 13 16 1001.0 1001.0 4.8
03/02:39am 11.7 7.0 10.6 93 0.6 WNW 26 35 14 19 1001.2 1001.2 4.4
03/02:30am 11.8 7.8 10.4 91 0.7 WNW 22 39 12 21 1001.4 1001.4 4.4
03/02:27am 11.8 8.2 10.5 92 0.7 WNW 20 28 11 15 1001.5 1001.5 4.4
03/02:14am 11.6 7.1 10.2 91 0.7 WNW 24 39 13 21 1001.9 1001.9 4.4
03/02:13am 11.6 7.1 10.2 91 0.7 WNW 24 39 13 21 1001.9 1001.9 4.4
03/02:00am 11.5 6.0 10.6 94 0.5 WNW 30 43 16 23 1002.1 1002.1 4.4
03/01:57am 11.5 5.6 10.6 94 0.5 WNW 32 44 17 24 1002.2 1002.2 4.2
03/01:46am 11.8 6.3 10.5 92 0.7 WNW 30 48 16 26 1002.2 1002.2 3.2
03/01:30am 11.7 6.7 10.8 94 0.5 WNW 28 39 15 21 1002.4 1002.4 3.2
03/01:25am 11.8 6.7 10.7 93 0.6 WNW 28 39 15 21 1002.5 1002.5 3.0
03/01:05am 12.1 5.6 10.5 90 0.8 NW 35 59 19 32 1002.6 1002.6 2.2
03/01:00am 12.1 6.2 10.3 89 0.9 NW 32 50 17 27 1002.6 1002.6 2.2
03/12:59am 12.1 6.2 10.5 90 0.8 NW 32 50 17 27 1002.7 1002.7 2.2
03/12:49am 12.0 6.5 10.4 90 0.8 NW 30 43 16 23 1002.8 1002.8 2.2
03/12:30am 11.8 6.3 10.5 92 0.7 WNW 30 50 16 27 1003.1 1003.1 2.2
03/12:27am 11.8 6.6 10.2 90 0.8 WNW 28 48 15 26 1003.2 1003.2 2.2
03/12:24am 11.9 7.2 10.5 91 0.7 NW 26 37 14 20 1003.2 1003.2 1.8
03/12:22am 12.0 7.2 10.4 90 0.8 WNW 26 35 14 19 1003.2 1003.2 1.8
03/12:16am 11.9 7.5 10.3 90 0.8 WNW 24 33 13 18 1003.3 1003.3 1.8

Other formats

Comma delimited format used in spreadsheet applications
http://www.bom.gov.au/fwo/IDT60801/IDT60801.95957.axf

JavaScript Object Notation format (JSON) in row-major order
http://www.bom.gov.au/fwo/IDT60801/IDT60801.95957.json

Data quality

Most of these data are generated automatically and are frequently updated. Quality checks on data are not normally performed. It is possible for incorrect values to appear. Refer to information at About Latest Weather Observations and please check the disclaimer before using these data.